Time;durP1;ratioP1;P1;durP2;ratioP2;P2;SDS_P1;SDS_P2;PMS_P1;PMS_P2;Temp;Humidity;BMP_temperature;BMP_pressure;BME280_temperature;BME280_humidity;BME280_pressure;Samples;Min_cycle;Max_cycle;Signal;HPM_P1;HPM_P2
2023/10/13 00:01:04;;;;;;;12.00;3.93;;;;;;;21.81;45.43;151499.69;4916379;29;20434;-51
2023/10/13 00:03:32;;;;;;;9.43;4.00;;;;;;;21.79;45.46;151493.44;4913445;29;20271;-52
2023/10/13 00:06:02;;;;;;;11.20;4.73;;;;;;;21.82;44.97;151502.19;4917029;29;20708;-53
2023/10/13 00:08:29;;;;;;;7.87;3.63;;;;;;;21.77;45.77;151488.44;4917736;29;20301;-51
2023/10/13 00:10:59;;;;;;;17.00;4.20;;;;;;;21.82;45.79;151502.19;4916161;29;21546;-51
2023/10/13 00:13:28;;;;;;;14.17;4.00;;;;;;;21.74;46.09;151482.13;4916848;29;20232;-51
2023/10/13 00:15:58;;;;;;;11.40;4.23;;;;;;;21.79;45.40;151493.44;4912790;29;20228;-52
2023/10/13 00:18:27;;;;;;;11.17;3.73;;;;;;;21.74;45.86;151480.91;4919851;29;20336;-52
2023/10/13 00:20:56;;;;;;;10.87;3.87;;;;;;;21.75;46.49;151484.66;4919402;29;20222;-51
2023/10/13 00:23:26;;;;;;;12.27;4.47;;;;;;;21.71;46.57;151473.38;4921618;29;20327;-51
2023/10/13 00:25:58;;;;;;;12.20;4.00;;;;;;;21.85;45.72;151508.50;4919850;29;20280;-51
2023/10/13 00:28:26;;;;;;;13.77;3.90;;;;;;;21.87;44.97;151513.50;4922576;29;20264;-52
2023/10/13 00:31:00;;;;;;;9.30;4.00;;;;;;;21.79;45.66;151493.44;4915984;29;20239;-51
2023/10/13 00:33:28;;;;;;;9.93;3.97;;;;;;;21.87;44.92;151513.50;4922544;29;20719;-51
2023/10/13 00:35:57;;;;;;;12.67;4.57;;;;;;;21.87;45.30;151513.50;4916439;29;20240;-52
2023/10/13 00:38:24;;;;;;;10.53;4.07;;;;;;;21.89;45.13;151518.53;4928108;29;20253;-51
2023/10/13 00:40:53;;;;;;;13.30;4.53;;;;;;;21.81;45.68;151498.47;4924155;29;20237;-51
2023/10/13 00:43:38;;;;;;;13.40;4.00;;;;;;;21.79;45.44;151494.69;4922743;29;20233;-51
2023/10/13 00:46:07;;;;;;;15.80;3.93;;;;;;;21.75;45.47;151483.41;4921527;29;20240;-51
2023/10/13 00:48:43;;;;;;;11.77;4.40;;;;;;;21.75;45.53;151483.41;4921006;29;20251;-51
2023/10/13 00:51:18;;;;;;;14.07;4.40;;;;;;;21.68;45.98;151467.13;4918484;29;20244;-51
2023/10/13 00:53:47;;;;;;;11.37;3.80;;;;;;;21.62;46.56;151453.31;4918816;29;20263;-51
2023/10/13 00:56:19;;;;;;;12.00;4.23;;;;;;;21.62;46.24;151453.31;4918872;29;20776;-51
2023/10/13 00:58:46;;;;;;;15.57;4.03;;;;;;;21.71;45.66;151473.38;4921383;29;20300;-51
2023/10/13 01:01:21;;;;;;;12.90;3.90;;;;;;;21.82;45.04;151500.97;4925877;29;20249;-51
2023/10/13 01:03:48;;;;;;;9.67;4.17;;;;;;;21.92;45.17;151524.78;4926250;28;20225;-53
2023/10/13 01:06:18;;;;;;;7.83;3.73;;;;;;;21.86;45.20;151511.00;4920538;29;20269;-52
2023/10/13 01:08:45;;;;;;;12.13;4.27;;;;;;;21.85;45.05;151507.22;4915826;29;20228;-52
2023/10/13 01:11:13;;;;;;;17.93;4.63;;;;;;;21.75;45.34;151483.41;4920559;29;20225;-51
2023/10/13 01:13:41;;;;;;;16.33;3.70;;;;;;;21.70;44.78;151472.16;4915236;29;20315;-52
2023/10/13 01:16:08;;;;;;;12.03;4.10;;;;;;;21.66;45.46;151463.34;4919499;29;20232;-51
2023/10/13 01:18:40;;;;;;;10.40;3.77;;;;;;;21.66;45.27;151463.34;4918401;29;20226;-51
2023/10/13 01:21:07;;;;;;;13.70;4.17;;;;;;;21.64;45.24;151458.34;4920584;29;20239;-51
2023/10/13 01:23:38;;;;;;;11.90;4.00;;;;;;;21.65;45.47;151460.84;4918973;29;20313;-51
2023/10/13 01:26:06;;;;;;;15.13;4.50;;;;;;;21.58;45.77;151442.00;4915782;29;20241;-52
2023/10/13 01:28:44;;;;;;;11.30;4.73;;;;;;;21.60;46.85;151447.03;4913137;29;20217;-52
2023/10/13 01:31:12;;;;;;;11.53;4.30;;;;;;;21.74;45.49;151482.13;4917692;29;20229;-52
2023/10/13 01:33:38;;;;;;;10.30;4.73;;;;;;;21.63;45.55;151455.81;4915652;29;20226;-51
2023/10/13 01:36:09;;;;;;;7.60;4.07;;;;;;;21.59;46.05;151444.53;4915779;29;20232;-53
2023/10/13 01:38:37;;;;;;;10.63;4.13;;;;;;;21.60;45.72;151447.03;4917307;29;20234;-51
2023/10/13 01:41:08;;;;;;;9.70;4.00;;;;;;;21.57;45.59;151439.50;4916542;29;20708;-51
2023/10/13 01:43:34;;;;;;;11.20;4.13;;;;;;;21.51;45.50;151426.97;4916966;29;20236;-52
2023/10/13 01:46:03;;;;;;;10.57;4.17;;;;;;;21.39;45.95;151398.09;4913272;29;20295;-51
2023/10/13 01:48:32;;;;;;;14.20;4.57;;;;;;;21.23;46.30;151359.28;4920256;29;20231;-51
2023/10/13 01:51:03;;;;;;;9.37;4.00;;;;;;;21.18;47.43;151345.50;4915868;29;20248;-51
2023/10/13 01:53:29;;;;;;;11.07;4.83;;;;;;;21.18;46.90;151346.72;4914233;29;20792;-51
2023/10/13 01:55:58;;;;;;;12.57;4.10;;;;;;;21.11;47.67;151329.19;4914954;29;21907;-53
2023/10/13 01:58:26;;;;;;;10.73;4.23;;;;;;;21.29;46.14;151373.03;4916667;29;20238;-51
2023/10/13 02:00:53;;;;;;;9.20;3.87;;;;;;;21.17;46.49;151343.00;4918907;29;20267;-52
2023/10/13 02:03:21;;;;;;;9.40;4.40;;;;;;;20.85;48.05;151266.50;4913717;29;20228;-52
2023/10/13 02:05:52;;;;;;;15.07;5.00;;;;;;;20.78;48.03;151250.25;4915979;29;20235;-54
2023/10/13 02:08:23;;;;;;;10.73;4.80;;;;;;;20.61;48.63;151208.84;4926073;29;20232;-51
2023/10/13 02:10:50;;;;;;;13.87;4.47;;;;;;;20.54;49.14;151190.03;4917543;29;20232;-54
2023/10/13 02:13:18;;;;;;;10.63;3.63;;;;;;;20.41;49.75;151158.72;4912593;29;20231;-51
2023/10/13 02:15:45;;;;;;;8.30;4.17;;;;;;;20.33;49.76;151139.91;4915230;29;20237;-51
2023/10/13 02:18:15;;;;;;;12.00;4.63;;;;;;;20.75;48.55;151242.69;4917257;29;20232;-53
2023/10/13 02:20:46;;;;;;;11.10;4.53;;;;;;;20.52;49.64;151186.31;4919494;29;20240;-51
2023/10/13 02:23:12;;;;;;;13.43;4.57;;;;;;;20.40;49.89;151156.22;4915465;29;20297;-53
2023/10/13 02:25:45;;;;;;;9.97;4.70;;;;;;;20.34;49.76;151142.41;4930428;29;20227;-51
2023/10/13 02:28:13;;;;;;;9.53;4.67;;;;;;;20.32;50.22;151138.69;4916109;29;20235;-53
2023/10/13 02:30:45;;;;;;;9.17;4.53;;;;;;;20.21;50.77;151112.34;4914062;29;20680;-51
2023/10/13 02:33:12;;;;;;;11.20;3.90;;;;;;;20.05;51.82;151072.31;4925152;29;20242;-52
2023/10/13 02:35:43;;;;;;;9.80;4.57;;;;;;;20.03;52.19;151067.28;4910468;29;20717;-51
2023/10/13 02:38:12;;;;;;;11.57;4.60;;;;;;;20.12;51.56;151089.84;4921999;29;20230;-53
2023/10/13 02:40:39;;;;;;;15.47;5.10;;;;;;;20.08;52.08;151079.81;4916537;29;20227;-51
2023/10/13 02:43:05;;;;;;;12.60;4.90;;;;;;;20.03;52.26;151068.53;4919892;29;20243;-52
2023/10/13 02:45:36;;;;;;;10.50;4.17;;;;;;;19.99;52.15;151057.28;4917640;29;20275;-51
2023/10/13 02:48:11;;;;;;;8.87;4.33;;;;;;;19.94;52.39;151044.75;4916049;29;20327;-53
2023/10/13 02:50:43;;;;;;;10.40;4.43;;;;;;;19.93;53.15;151042.25;4919883;29;20594;-52
2023/10/13 02:53:12;;;;;;;14.27;4.60;;;;;;;19.82;53.37;151015.88;4921535;29;20322;-52
2023/10/13 02:55:49;;;;;;;10.80;4.83;;;;;;;19.73;54.10;150994.59;4911719;29;20237;-53
2023/10/13 02:58:15;;;;;;;10.83;4.70;;;;;;;19.68;54.30;150983.28;4920094;29;20728;-51
2023/10/13 03:03:59;;;;;;;12.70;4.83;;;;;;;19.38;56.61;150909.44;5624516;23;20235;-56
2023/10/13 03:06:32;;;;;;;8.87;4.90;;;;;;;19.33;55.94;150899.41;4923479;28;20625;-57
2023/10/13 03:09:13;;;;;;;10.17;4.40;;;;;;;19.18;57.03;150863.13;4924933;28;20241;-56
2023/10/13 03:11:47;;;;;;;10.90;4.50;;;;;;;19.10;57.17;150841.81;4926043;28;20259;-56
2023/10/13 03:14:23;;;;;;;13.67;4.67;;;;;;;19.05;57.57;150829.34;4925023;29;20333;-56
2023/10/13 03:16:53;;;;;;;9.67;4.80;;;;;;;19.01;58.33;150820.53;4925368;29;20287;-56
2023/10/13 03:19:22;;;;;;;12.57;4.77;;;;;;;18.86;59.11;150785.44;4927712;29;20266;-56
2023/10/13 03:21:54;;;;;;;8.17;5.07;;;;;;;18.78;59.33;150765.41;4939463;28;20237;-55
2023/10/13 03:24:33;;;;;;;13.87;5.40;;;;;;;18.74;60.12;150755.41;4927558;29;20259;-56
2023/10/13 03:27:07;;;;;;;11.53;5.10;;;;;;;18.64;60.55;150731.63;4925016;29;20730;-54
2023/10/13 03:29:35;;;;;;;12.17;4.80;;;;;;;18.69;60.61;150744.16;4920147;29;20236;-56
2023/10/13 03:32:11;;;;;;;13.77;4.97;;;;;;;18.60;60.71;150721.63;5178939;23;20232;-55
2023/10/13 03:34:49;;;;;;;10.17;4.87;;;;;;;18.47;61.46;150689.06;4917247;28;20324;-56
2023/10/13 03:37:18;;;;;;;16.77;5.23;;;;;;;18.45;62.61;150685.34;4923011;28;20318;-55
2023/10/13 03:39:45;;;;;;;10.57;4.63;;;;;;;18.35;62.59;150660.31;4918063;28;20701;-55
2023/10/13 03:42:18;;;;;;;13.67;4.97;;;;;;;18.19;63.58;150622.78;4922529;28;20245;-56
2023/10/13 03:44:46;;;;;;;12.80;4.97;;;;;;;18.38;62.48;150669.06;4934500;28;20334;-55
2023/10/13 03:47:18;;;;;;;11.33;5.57;;;;;;;18.23;63.00;150632.78;4935986;28;20234;-57
2023/10/13 03:49:51;;;;;;;14.87;5.30;;;;;;;18.06;64.61;150591.47;4935869;28;20238;-54
2023/10/13 03:52:22;;;;;;;12.93;4.60;;;;;;;17.87;65.98;150545.13;4937414;28;20230;-57
2023/10/13 03:54:51;;;;;;;8.90;4.67;;;;;;;17.82;65.79;150532.63;4939571;28;20241;-56
2023/10/13 03:57:18;;;;;;;9.10;4.70;;;;;;;17.82;65.68;150532.63;4940310;28;20600;-57
2023/10/13 03:59:48;;;;;;;11.67;5.27;;;;;;;17.83;63.79;150536.41;4939669;28;20231;-55
2023/10/13 04:02:18;;;;;;;10.13;5.67;;;;;;;17.84;65.63;150538.91;4941836;28;20344;-57
2023/10/13 04:04:49;;;;;;;11.43;5.20;;;;;;;17.90;64.29;150552.66;4940964;28;20233;-57
2023/10/13 04:16:34;;;;;;;9.97;4.70;;;;;;;17.76;66.63;150518.88;4879315;29;20239;-57
2023/10/13 04:18:49;;;;;;;8.77;4.53;;;;;;;17.63;67.50;150486.34;4922296;28;20228;-57
2023/10/13 04:21:39;;;;;;;11.20;4.70;;;;;;;17.54;68.64;150465.06;4938089;28;20227;-56
2023/10/13 04:29:51;;;;;;;12.03;5.00;;;;;;;17.31;70.11;150408.81;4925598;28;20246;-57
2023/10/13 04:32:28;;;;;;;14.83;6.13;;;;;;;17.43;69.51;150438.81;4938996;28;20578;-57
2023/10/13 04:34:58;;;;;;;14.03;4.93;;;;;;;17.43;69.33;150437.59;4939393;28;20232;-57
2023/10/13 04:37:29;;;;;;;12.53;5.20;;;;;;;17.44;69.45;150441.31;4943398;28;20257;-57
2023/10/13 04:40:09;;;;;;;13.17;5.43;;;;;;;17.47;69.05;150448.81;4938385;28;20298;-57
2023/10/13 04:45:38;;;;;;;13.23;5.17;;;;;;;17.31;70.22;150410.06;4935576;28;20558;-56
2023/10/13 04:48:17;;;;;;;15.47;5.30;;;;;;;17.29;70.17;150403.78;4937416;28;20233;-57
2023/10/13 04:50:47;;;;;;;10.07;5.20;;;;;;;17.19;71.09;150380.06;4944262;28;20242;-57
2023/10/13 04:53:28;;;;;;;11.80;5.17;;;;;;;17.14;71.35;150368.78;4941652;28;20247;-57
2023/10/13 04:56:53;;;;;;;10.47;4.80;;;;;;;17.10;71.80;150360.03;4936973;28;20268;-57
2023/10/13 05:02:31;;;;;;;12.57;5.40;;;;;;;16.92;73.20;150316.25;4940552;28;20242;-56
2023/10/13 05:05:11;;;;;;;13.47;5.67;;;;;;;17.01;73.06;150336.25;4937445;28;20577;-57
2023/10/13 05:46:35;;;;;;;6.50;4.30;;;;;;;17.75;66.36;150515.13;4938641;28;20245;-55
2023/10/13 05:49:18;;;;;;;10.03;4.67;;;;;;;17.78;65.37;150523.91;4938546;28;20690;-53
2023/10/13 05:51:47;;;;;;;10.63;4.33;;;;;;;17.92;64.71;150556.44;4935829;28;20226;-57
2023/10/13 06:30:17;;;;;;;11.87;4.30;;;;;;;18.71;57.23;150747.88;4936976;28;20330;-56
2023/10/13 06:32:46;;;;;;;11.20;4.90;;;;;;;18.70;57.79;150745.38;4936374;28;20236;-56
2023/10/13 06:35:22;;;;;;;9.63;3.77;;;;;;;18.66;58.62;150735.38;4939559;28;20227;-57
2023/10/13 06:37:49;;;;;;;9.40;3.70;;;;;;;18.65;59.29;150734.13;4937716;28;20248;-54
2023/10/13 06:40:25;;;;;;;6.27;3.27;;;;;;;18.64;57.84;150730.38;4938831;28;20240;-54
2023/10/13 06:42:53;;;;;;;8.33;3.83;;;;;;;18.70;57.49;150746.66;4936882;28;20231;-57
2023/10/13 06:45:21;;;;;;;7.27;3.30;;;;;;;18.99;53.40;150816.81;4940574;28;20236;-56
2023/10/13 06:47:52;;;;;;;8.57;3.43;;;;;;;19.12;52.34;150848.09;4937301;28;20310;-57
2023/10/13 06:50:24;;;;;;;7.30;3.53;;;;;;;19.32;52.04;150896.91;4938466;28;20529;-57
2023/10/13 06:52:54;;;;;;;8.10;3.13;;;;;;;19.53;50.37;150947.00;4936469;28;20253;-57
2023/10/13 06:55:27;;;;;;;5.53;2.80;;;;;;;19.65;49.33;150974.56;4938106;28;20231;-57
2023/10/13 06:57:59;;;;;;;14.03;3.30;;;;;;;20.27;46.17;151124.88;4940991;28;20236;-56
2023/10/13 07:00:29;;;;;;;7.50;3.00;;;;;;;20.38;46.43;151151.22;4940223;28;20230;-58
2023/10/13 07:03:05;;;;;;;6.97;3.27;;;;;;;20.63;44.38;151212.59;4936192;28;20243;-57
2023/10/13 07:05:37;;;;;;;7.70;4.03;;;;;;;20.86;43.83;151267.78;4936038;28;20223;-56
2023/10/13 07:08:06;;;;;;;6.63;3.13;;;;;;;20.87;43.14;151271.53;4950645;28;20630;-55
2023/10/13 07:10:44;;;;;;;5.80;2.80;;;;;;;21.01;42.49;151304.09;4939244;28;20694;-57
2023/10/13 07:13:13;;;;;;;6.67;2.80;;;;;;;21.14;41.87;151335.47;4936426;28;20789;-57
2023/10/13 07:15:44;;;;;;;8.37;3.60;;;;;;;21.14;41.64;151335.47;4935405;28;20222;-55
2023/10/13 07:18:12;;;;;;;9.40;3.10;;;;;;;21.34;41.33;151384.34;4940180;28;20318;-56
2023/10/13 07:20:43;;;;;;;9.37;3.07;;;;;;;21.23;41.84;151358.00;4938879;28;20251;-57
2023/10/13 07:23:12;;;;;;;10.57;3.50;;;;;;;21.21;42.79;151352.97;4938836;28;20237;-57
2023/10/13 07:25:40;;;;;;;13.70;3.70;;;;;;;21.25;42.76;151363.00;4935971;28;20232;-57
2023/10/13 07:28:08;;;;;;;8.13;3.17;;;;;;;21.19;44.96;151348.00;4940888;28;20703;-56
2023/10/13 07:30:42;;;;;;;10.60;3.50;;;;;;;21.35;42.72;151388.06;4939318;28;20244;-56
2023/10/13 07:33:13;;;;;;;7.83;2.80;;;;;;;21.64;41.17;151457.09;4934073;28;20276;-54
2023/10/13 07:35:41;;;;;;;14.03;3.13;;;;;;;21.87;41.54;151513.50;4938211;28;20237;-57
2023/10/13 07:38:09;;;;;;;6.87;3.00;;;;;;;22.26;39.13;151608.78;4937600;28;20235;-55
2023/10/13 07:40:40;;;;;;;9.23;3.27;;;;;;;22.38;40.56;151637.66;4939662;28;20227;-56
2023/10/13 07:43:10;;;;;;;11.00;3.73;;;;;;;22.51;40.66;151667.81;4955291;28;20238;-56
2023/10/13 07:45:37;;;;;;;7.80;3.03;;;;;;;22.75;38.95;151725.50;4937080;28;20231;-58
2023/10/13 07:48:11;;;;;;;7.83;2.90;;;;;;;22.76;38.46;151729.25;4939565;28;20236;-57
2023/10/13 07:50:41;;;;;;;11.53;2.83;;;;;;;22.88;38.16;151756.84;4935419;28;20240;-57
2023/10/13 07:53:22;;;;;;;8.77;3.30;;;;;;;23.01;38.46;151789.47;4939710;28;20241;-57
2023/10/13 07:55:53;;;;;;;7.00;2.70;;;;;;;23.10;38.64;151810.78;4935440;28;20248;-56
2023/10/13 07:58:24;;;;;;;6.50;3.00;;;;;;;23.29;37.97;151857.28;4940419;28;20238;-58
2023/10/13 08:00:54;;;;;;;9.70;2.97;;;;;;;23.32;37.90;151864.78;4935557;28;20602;-58
2023/10/13 08:03:43;;;;;;;6.57;3.00;;;;;;;23.64;37.04;151942.59;4939053;28;20285;-57
2023/10/13 08:06:21;;;;;;;10.37;3.20;;;;;;;23.67;37.10;151948.88;4936862;28;20273;-57
2023/10/13 08:08:53;;;;;;;5.20;2.60;;;;;;;23.92;37.38;152009.09;4934187;28;20229;-57
2023/10/13 08:11:30;;;;;;;6.67;3.07;;;;;;;24.12;36.88;152059.38;4940793;28;20226;-57
2023/10/13 08:13:59;;;;;;;9.20;2.80;;;;;;;24.07;36.98;152045.56;4937245;28;20229;-57
2023/10/13 08:16:45;;;;;;;10.63;3.03;;;;;;;23.98;37.10;152025.44;4935736;28;20295;-55
2023/10/13 08:19:13;;;;;;;13.40;3.10;;;;;;;23.98;37.30;152024.16;4935455;28;20381;-57
2023/10/13 08:21:48;;;;;;;12.10;3.00;;;;;;;23.98;35.75;152024.16;4939618;28;20891;-56
2023/10/13 08:24:15;;;;;;;16.83;4.30;;;;;;;23.79;38.98;151979.03;4937316;28;20741;-56
2023/10/13 08:26:57;;;;;;;7.23;2.87;;;;;;;23.88;35.99;152000.34;4937228;28;20582;-56
2023/10/13 08:32:22;;;;;;;11.37;3.47;;;;;;;23.95;35.55;152017.91;4934588;28;20224;-58
2023/10/13 08:35:10;;;;;;;9.43;3.33;;;;;;;23.83;36.04;151989.06;4934423;28;20281;-56
2023/10/13 08:37:56;;;;;;;7.53;2.97;;;;;;;23.84;36.47;151990.28;4936597;28;20277;-58
2023/10/13 08:43:12;;;;;;;8.60;3.23;;;;;;;23.94;39.69;152015.41;4938023;28;20241;-58
2023/10/13 08:45:58;;;;;;;8.63;3.30;;;;;;;23.90;35.93;152005.34;4937394;28;20258;-55
2023/10/13 08:48:32;;;;;;;10.57;3.27;;;;;;;23.88;35.07;152001.56;4940906;28;20249;-55
2023/10/13 08:51:08;;;;;;;10.20;3.57;;;;;;;23.85;36.12;151994.03;4936857;28;20975;-57
2023/10/13 08:53:45;;;;;;;9.37;2.90;;;;;;;23.97;35.92;152022.94;4942699;28;20315;-57
2023/10/13 08:56:15;;;;;;;7.27;3.00;;;;;;;24.04;35.12;152039.28;4940650;28;20258;-58
2023/10/13 09:01:37;;;;;;;8.33;2.77;;;;;;;24.16;36.43;152069.41;4940941;28;20244;-54
2023/10/13 09:04:21;;;;;;;12.40;3.33;;;;;;;24.16;35.86;152069.41;4942132;28;20244;-56
2023/10/13 09:07:08;;;;;;;9.63;3.30;;;;;;;24.20;35.36;152076.94;4939841;28;20242;-57
2023/10/13 09:12:39;;;;;;;6.67;3.03;;;;;;;24.36;36.02;152117.13;4938896;28;20247;-58
2023/10/13 09:15:17;;;;;;;9.50;3.20;;;;;;;24.27;38.58;152094.53;4939688;28;20304;-56
2023/10/13 09:17:51;;;;;;;8.37;2.93;;;;;;;24.03;36.44;152036.78;4939595;28;20269;-54
2023/10/13 09:20:32;;;;;;;8.13;3.47;;;;;;;23.99;36.96;152028.00;4941968;28;20226;-58
2023/10/13 09:23:07;;;;;;;15.90;2.93;;;;;;;24.00;36.24;152030.50;4942238;28;20238;-57
2023/10/13 09:25:37;;;;;;;89.20;13.77;;;;;;;24.02;34.70;152035.53;4937745;28;20227;-56
2023/10/13 09:28:10;;;;;;;8.93;3.10;;;;;;;23.86;35.31;151995.31;4939065;28;20324;-56
2023/10/13 09:30:43;;;;;;;9.47;2.87;;;;;;;23.80;34.92;151980.25;4942058;28;20244;-57
2023/10/13 09:33:15;;;;;;;7.93;3.03;;;;;;;23.82;35.95;151986.56;4937163;28;20241;-56
2023/10/13 09:35:49;;;;;;;13.40;3.23;;;;;;;23.87;34.42;151997.81;4939919;28;20761;-56
2023/10/13 09:38:15;;;;;;;14.73;3.30;;;;;;;23.96;34.50;152020.41;4943168;28;20225;-55
2023/10/13 09:40:49;;;;;;;7.27;2.87;;;;;;;24.12;34.05;152058.13;4937523;28;20732;-55
2023/10/13 09:43:17;;;;;;;12.60;3.43;;;;;;;24.25;35.34;152090.78;4939156;28;20230;-57
2023/10/13 09:46:01;;;;;;;11.47;2.93;;;;;;;24.36;35.96;152117.13;4937315;28;20234;-57
2023/10/13 09:48:32;;;;;;;5.97;2.90;;;;;;;24.38;35.31;152122.16;4941118;28;20322;-57
2023/10/13 09:51:02;;;;;;;9.00;3.10;;;;;;;24.31;36.49;152104.56;4937118;28;20234;-56
2023/10/13 09:53:29;;;;;;;8.77;3.40;;;;;;;24.31;38.10;152104.56;4939905;28;20269;-57
2023/10/13 09:56:12;;;;;;;9.40;3.50;;;;;;;24.25;36.94;152090.78;4937155;28;20232;-56
2023/10/13 09:58:50;;;;;;;8.43;2.90;;;;;;;24.35;35.77;152113.38;4935703;28;20741;-54
2023/10/13 10:01:30;;;;;;;6.93;3.30;;;;;;;24.43;35.49;152134.69;4938799;28;20246;-57
2023/10/13 10:04:08;;;;;;;7.97;2.50;;;;;;;24.51;36.58;152152.28;4938619;28;20249;-57
2023/10/13 10:06:43;;;;;;;6.63;2.90;;;;;;;24.56;35.41;152164.84;4942148;28;20775;-58
2023/10/13 10:09:14;;;;;;;10.77;3.27;;;;;;;24.49;35.27;152147.25;4938789;28;20244;-57
2023/10/13 10:12:18;;;;;;;10.53;3.10;;;;;;;24.54;32.97;152161.06;4938277;28;20240;-58
2023/10/13 10:15:06;;;;;;;8.47;2.80;;;;;;;24.72;33.05;152203.75;4936752;28;20665;-56
2023/10/13 10:17:40;;;;;;;9.90;3.07;;;;;;;24.75;32.76;152211.34;4937593;28;20237;-57
2023/10/13 10:20:11;;;;;;;4.93;2.60;;;;;;;24.85;31.82;152235.22;4935513;28;20819;-57
2023/10/13 10:22:48;;;;;;;14.70;3.40;;;;;;;25.00;32.99;152271.63;4938094;28;20247;-58
2023/10/13 10:25:24;;;;;;;8.63;3.03;;;;;;;24.92;33.02;152252.75;4939552;28;20236;-56
2023/10/13 10:27:57;;;;;;;12.03;2.83;;;;;;;24.85;34.33;152235.22;4935463;28;20318;-58
2023/10/13 10:30:25;;;;;;;10.07;3.27;;;;;;;25.05;33.39;152285.41;4937615;28;20255;-58
2023/10/13 10:32:59;;;;;;;10.43;3.50;;;;;;;24.97;32.04;152264.09;4936388;28;20241;-56
2023/10/13 10:35:29;;;;;;;9.27;3.40;;;;;;;25.22;31.98;152325.63;4936907;28;20250;-55
2023/10/13 10:38:11;;;;;;;9.83;3.20;;;;;;;25.26;32.30;152335.66;4936083;28;20281;-57
2023/10/13 10:40:51;;;;;;;7.90;3.90;;;;;;;25.18;32.16;152316.84;4935012;28;20239;-57
2023/10/13 10:43:20;;;;;;;11.90;3.27;;;;;;;25.13;32.00;152304.28;4938967;28;20230;-57
2023/10/13 10:45:50;;;;;;;10.57;2.90;;;;;;;25.14;30.93;152306.78;4935676;28;20244;-55
2023/10/13 10:48:21;;;;;;;9.13;2.87;;;;;;;25.27;31.67;152338.19;4940744;28;20224;-56
2023/10/13 10:50:54;;;;;;;6.67;2.73;;;;;;;25.37;31.90;152360.78;4937069;28;20235;-56
2023/10/13 10:53:22;;;;;;;8.93;3.27;;;;;;;25.44;31.20;152378.38;4936544;28;20620;-57
2023/10/13 10:55:49;;;;;;;13.07;3.53;;;;;;;25.46;31.58;152384.69;4939311;28;20250;-57
2023/10/13 10:58:28;;;;;;;7.67;2.93;;;;;;;25.42;32.03;152373.34;4938768;28;20245;-57
2023/10/13 11:01:10;;;;;;;9.53;3.07;;;;;;;25.42;31.11;152373.34;4936960;28;20640;-58
2023/10/13 11:03:41;;;;;;;10.70;3.40;;;;;;;25.44;30.65;152379.66;4938228;28;20244;-55
2023/10/13 11:06:17;;;;;;;11.17;2.80;;;;;;;25.49;30.86;152392.22;4937711;28;20665;-57
2023/10/13 11:08:51;;;;;;;7.73;3.00;;;;;;;25.56;30.94;152408.56;4936165;28;20244;-57
2023/10/13 11:11:18;;;;;;;15.70;3.20;;;;;;;25.69;31.46;152439.97;4937522;28;20241;-57
2023/10/13 11:13:50;;;;;;;13.27;3.23;;;;;;;25.61;31.14;152419.84;4935464;28;20239;-57
2023/10/13 11:16:23;;;;;;;8.17;3.20;;;;;;;25.71;29.95;152443.75;4939196;28;20676;-57
2023/10/13 11:19:00;;;;;;;8.57;3.33;;;;;;;25.71;31.68;152445.00;4934114;28;20240;-58
2023/10/13 11:21:30;;;;;;;8.57;2.90;;;;;;;25.85;30.22;152477.66;4940659;28;20270;-58
2023/10/13 11:23:57;;;;;;;7.27;2.70;;;;;;;25.89;30.15;152487.72;4936086;28;21333;-57
2023/10/13 11:26:34;;;;;;;8.23;2.90;;;;;;;25.90;29.99;152491.50;4938953;28;20233;-54
2023/10/13 11:29:04;;;;;;;9.63;3.27;;;;;;;26.02;30.31;152520.38;4930917;28;20230;-57
2023/10/13 11:31:32;;;;;;;12.47;3.23;;;;;;;26.09;30.45;152536.69;4938528;28;20319;-57
2023/10/13 11:34:02;;;;;;;8.52;2.97;;;;;;;26.07;30.78;152532.97;4931792;28;20235;-58
2023/10/13 11:36:32;;;;;;;8.70;3.10;;;;;;;26.09;29.79;152537.97;4938642;28;20252;-57
2023/10/13 11:38:59;;;;;;;8.77;3.38;;;;;;;26.22;29.84;152568.19;4935235;28;20273;-56
2023/10/13 11:41:33;;;;;;;9.60;3.10;;;;;;;26.28;30.95;152583.28;4937684;28;20236;-57
2023/10/13 11:46:57;;;;;;;11.33;2.93;;;;;;;26.19;30.35;152560.66;4937635;28;20284;-57
2023/10/13 11:49:33;;;;;;;8.10;2.90;;;;;;;26.33;29.96;152595.84;4944047;28;20248;-57
2023/10/13 11:52:15;;;;;;;7.50;3.10;;;;;;;26.45;30.23;152623.50;4937065;28;20255;-57
2023/10/13 11:54:43;;;;;;;7.03;3.00;;;;;;;26.68;29.72;152681.28;4933599;28;20616;-56
2023/10/13 11:57:09;;;;;;;8.27;3.07;;;;;;;26.50;31.56;152637.31;4939315;28;20253;-56
2023/10/13 11:59:44;;;;;;;14.60;3.40;;;;;;;26.69;31.07;152682.56;4939772;28;20255;-55
2023/10/13 12:04:59;;;;;;;8.13;3.37;;;;;;;26.77;30.31;152702.66;4936139;28;21018;-54
2023/10/13 12:07:40;;;;;;;7.33;2.97;;;;;;;26.82;30.68;152714.00;4939455;28;20296;-55
2023/10/13 12:10:15;;;;;;;8.30;3.23;;;;;;;26.77;30.95;152702.66;4937881;28;20702;-58
2023/10/13 12:12:44;;;;;;;6.95;2.95;;;;;;;26.83;30.78;152715.28;4937074;28;20241;-57
2023/10/13 12:15:25;;;;;;;10.13;3.58;;;;;;;26.84;29.97;152717.81;4938742;28;20772;-55
2023/10/13 12:17:52;;;;;;;7.90;3.53;;;;;;;26.85;30.27;152721.56;4939619;28;20680;-57
2023/10/13 12:20:32;;;;;;;7.63;3.10;;;;;;;26.90;29.13;152732.88;4940507;28;20233;-55
2023/10/13 12:23:09;;;;;;;5.50;3.33;;;;;;;26.93;28.98;152741.66;4940688;28;20244;-56
2023/10/13 12:25:54;;;;;;;9.10;3.17;;;;;;;26.95;29.97;152745.47;4938560;28;20228;-57
2023/10/13 12:28:23;;;;;;;13.68;3.38;;;;;;;26.89;29.35;152731.59;4928631;29;20615;-57
2023/10/13 12:30:52;;;;;;;9.68;3.58;;;;;;;27.00;30.70;152758.03;4936325;28;20232;-57
2023/10/13 12:33:26;;;;;;;9.57;3.63;;;;;;;27.11;30.43;152784.41;4941608;28;20231;-57
2023/10/13 12:36:06;;;;;;;10.10;3.13;;;;;;;27.20;29.58;152807.06;4941981;28;20229;-58
2023/10/13 12:48:55;;;;;;;7.73;3.40;;;;;;;27.02;31.24;152763.06;4942291;28;20254;-56
2023/10/13 12:49:58;;;;;;;7.13;3.17;;;;;;;26.22;31.02;152568.19;4938583;28;20229;-57
2023/10/13 12:52:31;;;;;;;9.93;3.73;;;;;;;26.27;31.15;152579.47;4941198;28;20229;-58
2023/10/13 12:55:09;;;;;;;7.13;3.33;;;;;;;26.26;31.52;152578.25;4938368;28;20360;-57
2023/10/13 12:57:42;;;;;;;10.93;3.97;;;;;;;26.35;30.99;152600.88;4941449;28;20225;-55
2023/10/13 13:00:26;;;;;;;13.23;3.73;;;;;;;26.36;32.95;152603.38;4937328;28;20320;-58
2023/10/13 13:02:55;;;;;;;9.13;3.20;;;;;;;26.43;31.37;152619.69;4940496;28;20246;-55
2023/10/13 13:05:28;;;;;;;12.47;3.57;;;;;;;26.41;31.00;152614.69;4942991;28;20240;-57
2023/10/13 13:07:55;;;;;;;7.53;3.28;;;;;;;26.44;31.15;152620.97;4938317;28;20240;-56
2023/10/13 13:10:34;;;;;;;12.10;3.35;;;;;;;26.27;31.25;152579.47;4941972;28;20227;-57
2023/10/13 13:13:02;;;;;;;7.03;3.20;;;;;;;26.33;31.70;152595.84;4939705;28;20233;-56
2023/10/13 13:15:29;;;;;;;10.03;3.13;;;;;;;26.55;31.31;152648.59;4939914;28;20567;-58
2023/10/13 13:17:55;;;;;;;9.07;3.17;;;;;;;26.70;31.38;152685.06;4938921;28;20240;-57
2023/10/13 13:20:28;;;;;;;8.07;2.90;;;;;;;26.78;30.64;152705.19;4942440;28;20461;-57
2023/10/13 13:22:55;;;;;;;6.50;3.40;;;;;;;27.00;30.03;152756.75;4937089;28;20238;-57
2023/10/13 13:25:26;;;;;;;11.05;3.08;;;;;;;27.21;29.98;152809.56;4941790;28;20228;-57
2023/10/13 13:27:53;;;;;;;8.02;2.80;;;;;;;27.35;31.21;152843.50;4937385;28;20230;-57
2023/10/13 13:30:21;;;;;;;8.23;3.10;;;;;;;27.46;28.77;152869.94;4942243;28;20256;-56
2023/10/13 13:32:48;;;;;;;6.80;2.53;;;;;;;27.48;29.34;152873.69;4939213;28;20228;-57
2023/10/13 13:35:18;;;;;;;6.80;3.10;;;;;;;27.60;29.43;152903.91;4938845;29;20231;-55
2023/10/13 13:37:46;;;;;;;9.30;3.23;;;;;;;27.55;29.07;152892.63;4938644;28;20323;-57
2023/10/13 13:40:18;;;;;;;5.25;2.90;;;;;;;27.44;29.02;152863.63;4940310;28;20265;-58
2023/10/13 13:42:45;;;;;;;10.57;3.58;;;;;;;27.23;29.92;152814.59;4942340;28;20287;-55
2023/10/13 13:45:27;;;;;;;8.27;3.20;;;;;;;26.98;29.33;152753.00;4941370;28;20710;-56
2023/10/13 13:47:54;;;;;;;10.07;2.90;;;;;;;26.85;29.78;152720.31;4935168;28;20245;-58
2023/10/13 13:50:24;;;;;;;14.13;3.72;;;;;;;26.56;29.43;152651.09;4943026;28;20227;-55